SVP Hospital Helipad

IN-0212 · Gujarat, India

Storia di METAR IN-0212 · SVP Hospital Helipad

Di seguito sono riportati i METAR degli ultimi giorni. Seleziona un anno per sfogliare i METAR più vecchi, dall'anno 2007 in poi.

18 luglio 2024

Tempo Codice Tempo meteorologico Temp. Vista Base nuvolosa Vento METAR/SPECI
10:30
I
30 °C 4 km - 160° 160° 6 kt METAR VAAH 180500Z 16006KT 4000 HZ SCT018 SCT080 30/25 Q1000 NOSIG
09:30
I
29 °C 4 km 8.000 ft 200° 200° 8 kt METAR VAAH 180400Z 20008KT 4000 HZ FEW012 SCT018 BKN080 29/24 Q1001 NOSIG
09:00
I
28 °C 4 km 8.000 ft 170° 170° 5 kt METAR VAAH 180330Z 17005KT 4000 HZ SCT018 BKN080 28/24 Q1000 NOSIG
08:30
I
28 °C 4 km 8.000 ft 180° 180° 8 kt METAR VAAH 180300Z 18008KT 4000 -DZ FEW012 SCT018 BKN080 28/24 Q1000 NOSIG
08:00
I
28 °C 4 km 8.000 ft 170° 170° 5 kt METAR VAAH 180230Z 17005KT 4000 HZ SCT018 BKN080 28/24 Q1000 NOSIG
07:30
I
28 °C 4 km 8.000 ft 170° 170° 6 kt METAR VAAH 180200Z 17006KT 4000 HZ FEW018 BKN080 28/24 Q1000 NOSIG
07:00
I
28 °C 4 km 8.000 ft 180° 180° 6 kt METAR VAAH 180130Z 18006KT 4000 BR SCT018 BKN080 28/24 Q1000 NOSIG
06:30
I
28 °C 4 km 8.000 ft 180° 180° 4 kt METAR VAAH 180100Z 18004KT 4000 BR SCT018 BKN080 28/24 Q0999 NOSIG
06:00
I
27 °C 4 km 8.000 ft 150° 150° 6 kt METAR VAAH 180030Z 15006KT 4000 BR SCT018 BKN080 27/24 Q0999 NOSIG
05:30
I
28 °C 4 km 8.000 ft 180° 180° 6 kt METAR VAAH 180000Z 18006KT 4000 BR SCT018 BKN080 28/24 Q0998 NOSIG
05:00
I
28 °C 4 km 8.000 ft 180° 180° 7 kt METAR VAAH 172330Z 18007KT 4000 BR SCT018 BKN080 28/25 Q0997 NOSIG
04:30
I
28 °C 4 km 8.000 ft 170° 170° 6 kt METAR VAAH 172300Z 17006KT 4000 BR SCT018 BKN080 28/25 Q0998 NOSIG
04:00
I
28 °C 4 km 8.000 ft 160° 160° 9 kt METAR VAAH 172230Z 16009KT 4000 BR SCT018 OVC080 28/25 Q0998 NOSIG
03:30
I
28 °C 4 km 8.000 ft 140° 140° 5 kt METAR VAAH 172200Z 14005KT 4000 BR SCT018 OVC080 28/25 Q0998 NOSIG
03:00
I
28 °C 4 km 8.000 ft 170° 170° 7 kt METAR VAAH 172130Z 17007KT 4000 BR SCT018 OVC080 28/25 Q0998 NOSIG
02:30
I
28 °C 4 km 8.000 ft 160° 160° 6 kt METAR VAAH 172100Z 16006KT 4000 BR SCT018 BKN080 28/25 Q0998 TEMPO 3000 -RA
02:00
I
28 °C 4 km 8.000 ft 150° 150° 5 kt METAR VAAH 172030Z 15005KT 4000 HZ SCT018 BKN080 28/25 Q0999 TEMPO 3000 -RA
01:30
I
28 °C 4 km 8.000 ft 140° 140° 6 kt METAR VAAH 172000Z 14006KT 4000 HZ SCT018 BKN080 28/25 Q0999 NOSIG
01:00
I
28 °C 4 km 8.000 ft 160° 160° 7 kt METAR VAAH 171930Z 16007KT 4000 HZ SCT020 BKN080 28/25 Q0999 NOSIG
00:30
I
29 °C 4 km 8.000 ft 150° 150° 8 kt METAR VAAH 171900Z 15008KT 4000 HZ FEW020 BKN080 29/25 Q1000 NOSIG
00:00
I
29 °C 4 km 8.000 ft 160° 160° 7 kt METAR VAAH 171830Z 16007KT 4000 HZ FEW020 BKN080 29/25 Q1000 NOSIG

17 luglio 2024

Tempo Codice Tempo meteorologico Temp. Vista Base nuvolosa Vento METAR/SPECI
23:30
I
29 °C 4 km - 140° 140° 6 kt METAR VAAH 171800Z 14006KT 4000 HZ FEW020 SCT080 29/25 Q1001 NOSIG
23:00
I
29 °C 4 km - 150° 150° 8 kt METAR VAAH 171730Z 15008KT 4000 HZ FEW020 SCT080 29/25 Q1001 NOSIG
22:30
I
29 °C 4 km 8.000 ft 160° 160° 5 kt METAR VAAH 171700Z 16005KT 4000 HZ FEW020 BKN080 29/25 Q1001 NOSIG
22:00
I
29 °C 3,5 km 8.000 ft 150° 150° 6 kt METAR VAAH 171630Z 15006KT 3500 HZ SCT020 BKN080 29/25 Q1000 NOSIG
21:30
I
30 °C 3,5 km 8.000 ft 160° 160° 6 kt METAR VAAH 171600Z 16006KT 3500 HZ SCT020 BKN080 30/25 Q1000 NOSIG
21:00
I
30 °C 3,5 km 8.000 ft 160° 160° 5 kt METAR VAAH 171530Z 16005KT 3500 HZ SCT020 BKN080 30/25 Q1000 NOSIG
20:30
I
30 °C 3,5 km 8.000 ft 160° 160° 8 kt METAR VAAH 171500Z 16008KT 3500 HZ SCT020 BKN080 30/25 Q0999 NOSIG
20:00
I
30 °C 3,5 km 8.000 ft 150° 150° 7 kt METAR VAAH 171430Z 15007KT 3500 HZ SCT020 BKN080 30/25 Q0999 NOSIG
19:30
I
31 °C 3,5 km 8.000 ft 120° 120° 4 kt METAR VAAH 171400Z 12004KT 3500 HZ FEW020 SCT025 BKN080 31/25 Q0998 NOSIG
19:00
I
31 °C 3,5 km 8.000 ft 140° 140° 5 kt METAR VAAH 171330Z 14005KT 3500 HZ FEW020 SCT025 BKN080 31/25 Q0998 NOSIG
18:30
I
31 °C 4 km 8.000 ft 150° 150° 5 kt METAR VAAH 171300Z 15005KT 4000 HZ FEW020 SCT025 BKN080 31/25 Q0997 BECMG 3000
18:00
I
31 °C 4 km 8.000 ft 150° 150° 6 kt METAR VAAH 171230Z 15006KT 4000 HZ SCT020 SCT025 BKN080 31/25 Q0997 NOSIG
17:30
I
31 °C 4 km 8.000 ft 170° 170° 9 kt METAR VAAH 171200Z 17009KT 4000 HZ SCT020 SCT025 BKN080 31/25 Q0997 NOSIG
17:00
I
32 °C 4 km 8.000 ft 140° 140° 8 kt METAR VAAH 171130Z 14008KT 4000 HZ SCT020 SCT025 BKN080 32/25 Q0997 NOSIG
16:30
I
32 °C 4 km 8.000 ft 170° 170° 6 kt METAR VAAH 171100Z 17006KT 4000 HZ FEW015 SCT020 FEW025TCU BKN080 32/25 Q0997 NOSIG
16:00
I
32 °C 4 km 8.000 ft 180° 180° 6 kt METAR VAAH 171030Z 18006KT 4000 HZ FEW015 SCT020 FEW025TCU BKN080 32/25 Q0997 NOSIG
15:30
I
31 °C 4 km 8.000 ft 170° 170° 7 kt METAR VAAH 171000Z 17007KT 4000 HZ FEW015 SCT020 FEW025TCU BKN080 31/25 Q0998 NOSIG
15:00
I
31 °C 4 km 8.000 ft 160° 160° 7 kt METAR VAAH 170930Z 16007KT 4000 HZ FEW015 SCT020 FEW025TCU BKN080 31/25 Q0999 TEMPO 2000 -RA
14:30
I
31 °C 4 km 8.000 ft 150° 150° 7 kt METAR VAAH 170900Z 15007KT 4000 HZ FEW015 SCT020 FEW025TCU BKN080 31/25 Q0999 TEMPO 2000 -RA
14:00
I
31 °C 4 km 8.000 ft 140° 140° 8 kt METAR VAAH 170830Z 14008KT 4000 HZ FEW015 SCT020 FEW025TCU OVC080 31/25 Q0999 TEMPO 2000 -RA
13:30
I
30 °C 4 km 8.000 ft 160° 160° 7 kt METAR VAAH 170800Z 16007KT 4000 HZ SCT015 SCT020 FEW025TCU OVC080 30/25 Q1000 TEMPO 2000 -RA
13:00
I
31 °C 4 km 8.000 ft 150° 150° 5 kt METAR VAAH 170730Z 15005KT 4000 HZ FEW015 SCT020 FEW025TCU BKN080 31/25 Q1000 NOSIG
12:30
I
30 °C 4 km 8.000 ft 150° 150° 8 kt METAR VAAH 170700Z 15008KT 4000 HZ FEW015 SCT020 FEW025TCU BKN080 30/25 Q1000 TEMPO -DZ
12:00
I
31 °C 4 km 8.000 ft 140° 140° 5 kt METAR VAAH 170630Z 14005KT 4000 HZ FEW015 SCT020 FEW025TCU BKN080 31/25 Q1000 NOSIG
11:30
I
31 °C 4 km 8.000 ft 170° 170° 8 kt METAR VAAH 170600Z 17008KT 4000 HZ SCT020 SCT025 BKN080 31/25 Q1000 NOSIG
11:00
I
30 °C 4 km 8.000 ft 150° 150° 6 kt METAR VAAH 170530Z 15006KT 4000 HZ SCT020 SCT025 BKN080 30/24 Q1000 NOSIG
10:30
I
30 °C 4 km 8.000 ft 160° 160° 8 kt METAR VAAH 170500Z 16008KT 4000 HZ SCT020 SCT025 BKN080 30/24 Q1000 NOSIG
10:00
I
29 °C 4 km 8.000 ft 180° 180° 9 kt METAR VAAH 170430Z 18009KT 4000 HZ SCT020 SCT025 BKN080 29/25 Q1000 NOSIG
09:30
I
29 °C 4 km 8.000 ft 180° 180° 8 kt METAR VAAH 170400Z 18008KT 4000 HZ SCT020 BKN080 29/25 Q1000 NOSIG
09:00
I
28 °C 3 km 8.000 ft 190° 190° 10 kt METAR VAAH 170330Z 19010KT 3000 BR SCT020 BKN080 28/25 Q1001 NOSIG
08:30
I
28 °C 3 km 8.000 ft 160° 160° 9 kt METAR VAAH 170300Z 16009KT 3000 BR SCT020 BKN080 28/24 Q1000 NOSIG
08:00
I
27 °C 3 km 8.000 ft 160° 160° 6 kt METAR VAAH 170230Z 16006KT 3000 BR SCT020 BKN080 27/24 Q1000 NOSIG
07:30
I
27 °C 3 km 8.000 ft 160° 160° 6 kt METAR VAAH 170200Z 16006KT 3000 BR SCT012 SCT020 OVC080 27/24 Q1000 NOSIG
07:00
I
27 °C 3 km 8.000 ft 150° 150° 5 kt METAR VAAH 170130Z 15005KT 3000 BR SCT012 SCT020 OVC080 27/24 Q1000 NOSIG
06:30
I
27 °C 3 km 8.000 ft 140° 140° 5 kt METAR VAAH 170100Z 14005KT 3000 BR SCT012 SCT020 OVC080 27/24 Q0999 NOSIG
06:00
I
27 °C 3 km 8.000 ft 140° 140° 5 kt METAR VAAH 170030Z 14005KT 3000 BR SCT012 SCT020 FEW030TCU OVC080 27/24 Q0998 TEMPO 2000 RA
05:30
I
27 °C 3 km 8.000 ft 130° 130° 4 kt METAR VAAH 170000Z 13004KT 3000 BR SCT012 SCT020 FEW030TCU OVC080 27/24 Q0998 TEMPO 2000 RA
05:00
I
27 °C 3 km 8.000 ft 150° 150° 4 kt METAR VAAH 162330Z 15004KT 3000 BR SCT012 SCT020 FEW030TCU OVC080 27/25 Q0997 TEMPO 2000 RA
04:30
I
27 °C 3 km 8.000 ft 100° 100° 4 kt METAR VAAH 162300Z 10004KT 3000 BR SCT012 SCT020 FEW030TCU OVC080 27/25 Q0997 TEMPO 2000 RA
04:00
I
27 °C 2,5 km 8.000 ft 140° 140° 4 kt METAR VAAH 162230Z 14004KT 2500 -RA SCT012 SCT020 FEW030CB BKN080 27/25 Q0997 TEMPO 2000 TSRA
03:30
I
28 °C 2,5 km 8.000 ft 150° 150° 5 kt METAR VAAH 162200Z 15005KT 2500 DZ SCT012 SCT020 FEW030CB BKN080 28/25 Q0997 TEMPO 2000 TSRA
03:00
I
28 °C 2,5 km 8.000 ft 160° 160° 4 kt METAR VAAH 162130Z 16004KT 2500 -TSRA SCT012 SCT020 FEW030CB BKN080 28/26 Q0997 TEMPO 1500 +TSRA
02:30
I
28 °C 2,5 km 8.000 ft 190° 190° 4 kt METAR VAAH 162100Z 19004KT 2500 -TSRA SCT012 SCT020 FEW030CB BKN080 28/26 Q0998 TEMPO 1500 +TSRA
02:00
I
28 °C 2,5 km 8.000 ft 180° 180° 6 kt METAR VAAH 162030Z 18006KT 2500 -TSRA SCT012 SCT020 FEW030CB BKN080 28/26 Q0998 TEMPO 1500 +TSRA
01:30
I
28 °C 3 km 8.000 ft 190° 190° 8 kt METAR VAAH 162000Z 19008KT 3000 TS SCT012 SCT020 FEW030CB BKN080 28/25 Q0999 TEMPO 2000 +TSRA
01:00
I
28 °C 3 km 8.000 ft 180° 180° 8 kt METAR VAAH 161930Z 18008KT 3000 HZ SCT012 SCT020 FEW030CB BKN080 28/26 Q0998 TEMPO 2000 +TSRA
00:30
I
28 °C 3 km 8.000 ft 180° 180° 6 kt METAR VAAH 161900Z 18006KT 3000 HZ SCT012 SCT020 FEW030CB BKN080 28/26 Q0999 TEMPO 2000 +TSRA

16 luglio 2024

Tempo Codice Tempo meteorologico Temp. Vista Base nuvolosa Vento METAR/SPECI
23:30
I
28 °C 2,5 km 8.000 ft 190° 190° 8 - 18 kt METAR VAAH 161800Z 19008G18KT 2500 -TSRA SCT012 SCT020 FEW030TCU BKN080 28/26 Q0998 TEMPO 1500 +TSRA
23:00
I
28 °C 2,5 km 8.000 ft 190° 190° 8 - 18 kt METAR VAAH 161730Z 19008G18KT 2500 -TSRA SCT012 SCT020 FEW030TCU BKN080 28/26 Q0999 TEMPO 1500 +TSRA
22:30
I
28 °C 2,5 km 8.000 ft 180° 180° 10 - 20 kt METAR VAAH 161700Z 18010G20KT 2500 -TSRA SCT012 SCT020 FEW030TCU BKN080 28/26 Q0999 TEMPO 1500 +TSRA
22:00
I
29 °C 3,5 km 8.000 ft 180° 180° 12 - 22 kt METAR VAAH 161630Z 18012G22KT 3500 HZ SCT012 SCT020 FEW025TCU BKN080 29/25 Q0998 TEMPO 2000 RA
21:30
I
29 °C 3,5 km 8.000 ft 170° 170° 10 - 20 kt METAR VAAH 161600Z 17010G20KT 3500 HZ SCT020 FEW025TCU OVC080 29/26 Q0998 NOSIG
21:00
I
30 °C 3,5 km 8.000 ft 160° 160° 10 - 20 kt METAR VAAH 161530Z 16010G20KT 3500 HZ SCT020 FEW025TCU BKN080 30/27 Q0997 NOSIG
20:30
I
32 °C 3,5 km 8.000 ft 150° 150° 6 kt METAR VAAH 161500Z 15006KT 3500 HZ SCT020 FEW025TCU BKN080 32/27 Q0997 NOSIG
20:00
I
32 °C 3,5 km 8.000 ft 140° 140° 4 kt METAR VAAH 161430Z 14004KT 3500 HZ SCT020 FEW025TCU BKN080 32/26 Q0997 NOSIG
19:30
I
32 °C 3,5 km 8.000 ft 130° 130° 4 kt METAR VAAH 161400Z 13004KT 3500 HZ SCT020 FEW025TCU BKN080 32/26 Q0996 NOSIG
19:00
I
32 °C 4 km 8.000 ft 120° 120° 3 kt METAR VAAH 161330Z 12003KT 4000 HZ FEW015 SCT020 FEW025TCU BKN080 32/27 Q0996 TEMPO 3000 -DZ
18:30
I
32 °C 4 km 8.000 ft 080° 080° 3 kt METAR VAAH 161300Z 08003KT 4000 HZ SCT020 FEW025TCU BKN080 32/26 Q0996 NOSIG
18:00
I
32 °C 4 km 8.000 ft 060° 060° 3 kt METAR VAAH 161230Z 06003KT 4000 HZ FEW015 SCT020 FEW025TCU BKN080 32/26 Q0996 TEMPO 3000 DZ
17:30
I
32 °C 4 km 8.000 ft 050° 050° 5 kt METAR VAAH 161200Z 05005KT 4000 HZ SCT020 FEW025TCU BKN080 32/26 Q0996 NOSIG
17:00
I
33 °C 4 km 8.000 ft 090° 090° 4 kt METAR VAAH 161130Z 09004KT 4000 HZ SCT020 FEW025TCU BKN080 33/27 Q0996 NOSIG
16:30
I
33 °C 4 km 8.000 ft 070° 070° 3 kt METAR VAAH 161100Z 07003KT 4000 HZ SCT020 FEW025TCU BKN080 33/27 Q0996 NOSIG
16:00
I
32 °C 4 km 8.000 ft 080° 080° 3 kt METAR VAAH 161030Z 08003KT 4000 HZ FEW015 SCT020 FEW025TCU BKN080 32/26 Q0996 NOSIG
15:30
I
32 °C 4 km 8.000 ft 050° 050° 6 kt METAR VAAH 161000Z 05006KT 4000 HZ FEW015 SCT020 FEW025TCU OVC080 32/26 Q0997 TEMPO 3000 -RA
15:00
I
31 °C 4 km 8.000 ft 030° 030° 5 kt METAR VAAH 160930Z 03005KT 4000 HZ FEW015 SCT020 OVC080 31/26 Q0997 TEMPO 2000 RA
14:30
I
32 °C 4 km 8.000 ft 020° 020° 3 kt METAR VAAH 160900Z 02003KT 4000 HZ SCT020 SCT025 BKN080 32/26 Q0997 NOSIG
14:00
I
31 °C 4 km 8.000 ft 020° 020° 3 kt METAR VAAH 160830Z 02003KT 4000 HZ FEW020 BKN080 31/26 Q0997 NOSIG
13:30
I
31 °C 4 km 8.000 ft 010° 010° 5 kt METAR VAAH 160800Z 01005KT 4000 HZ FEW020 BKN080 31/27 Q0998 NOSIG
13:00
I
31 °C 4 km 8.000 ft 360° 360° 0 kt METAR VAAH 160730Z 00000KT 4000 HZ FEW020 BKN080 31/26 Q0999 NOSIG
12:30
I
31 °C 3 km 8.000 ft 280° 280° 3 kt METAR VAAH 160700Z 28003KT 3000 HZ FEW020 BKN080 31/25 Q0999 NOSIG
12:00
I
30 °C 3 km 8.000 ft 360° 360° 0 kt METAR VAAH 160630Z 00000KT 3000 BR FEW020 OVC080 30/26 Q0999 NOSIG
11:30
I
29 °C 3 km 8.000 ft 310° 310° 3 kt METAR VAAH 160600Z 31003KT 3000 BR FEW020 OVC080 29/26 Q0999 NOSIG
11:00
I
29 °C 3 km 8.000 ft 350° 350° 5 kt METAR VAAH 160530Z 35005KT 3000 BR FEW020 OVC080 29/26 Q1000 NOSIG
10:30
I
29 °C 3 km 8.000 ft 290° 290° 3 kt METAR VAAH 160500Z 29003KT 3000 BR FEW020 OVC080 29/26 Q1000 NOSIG
10:00
I
29 °C 3 km 8.000 ft 360° 360° 0 kt METAR VAAH 160430Z 00000KT 3000 BR FEW020 OVC080 29/25 Q1000 NOSIG
09:30
I
28 °C 3 km 8.000 ft 210° 210° 3 kt METAR VAAH 160400Z 21003KT 3000 BR FEW020 OVC080 28/25 Q1000 NOSIG
09:00
I
28 °C 3 km 8.000 ft 360° 360° 0 kt METAR VAAH 160330Z 00000KT 3000 BR FEW020 OVC080 28/25 Q1000 NOSIG
08:30
I
27 °C 3 km 8.000 ft 360° 360° 0 kt METAR VAAH 160300Z 00000KT 3000 BR FEW020 OVC080 27/25 Q0999 NOSIG
08:00
I
27 °C 2,5 km 8.000 ft 360° 360° 0 kt METAR VAAH 160230Z 00000KT 2500 BR FEW020 OVC080 27/25 Q0999 TEMPO 2000
07:30
I
27 °C 2,5 km 8.000 ft 360° 360° 0 kt METAR VAAH 160200Z 00000KT 2500 BR FEW020 OVC080 27/25 Q1000 TEMPO 2000
07:00
I
26 °C 2,5 km 8.000 ft 360° 360° 0 kt METAR VAAH 160130Z 00000KT 2500 BR SCT020 BKN080 26/25 Q1000 TEMPO 2000
06:30
I
26 °C 3 km 8.000 ft 360° 360° 0 kt METAR VAAH 160100Z 00000KT 3000 BR SCT020 BKN080 26/25 Q0999 TEMPO 2000
06:00
I
26 °C 3 km 8.000 ft 360° 360° 0 kt METAR VAAH 160030Z 00000KT 3000 BR SCT020 BKN080 26/25 Q0999 TEMPO 2000
05:30
I
26 °C 3,5 km 8.000 ft 360° 360° 0 kt METAR VAAH 160000Z 00000KT 3500 BR FEW020 BKN080 26/25 Q0999 NOSIG
05:00
I
26 °C 3,5 km 8.000 ft 360° 360° 0 kt METAR VAAH 152330Z 00000KT 3500 BR FEW020 BKN080 26/25 Q0998 NOSIG
04:30
I
26 °C 3,5 km 8.000 ft 360° 360° 0 kt METAR VAAH 152300Z 00000KT 3500 BR FEW020 BKN080 26/25 Q0998 NOSIG
04:00
I
26 °C 3,5 km 8.000 ft 290° 290° 2 kt METAR VAAH 152230Z 29002KT 3500 BR FEW020 BKN080 26/25 Q0997 NOSIG
03:30
I
26 °C 3,5 km 8.000 ft 320° 320° 3 kt METAR VAAH 152200Z 32003KT 3500 BR FEW020 BKN080 26/25 Q0997 NOSIG
03:00
I
26 °C 3,5 km 8.000 ft 300° 300° 2 kt METAR VAAH 152130Z 30002KT 3500 BR BKN080 26/25 Q0997 NOSIG
02:30
I
26 °C 3,5 km 8.000 ft 360° 360° 0 kt METAR VAAH 152100Z 00000KT 3500 BR BKN080 26/25 Q0998 NOSIG
02:00
I
26 °C 3,5 km 8.000 ft 360° 360° 0 kt METAR VAAH 152030Z 00000KT 3500 BR BKN080 26/25 Q0998 NOSIG
01:30
I
26 °C 3,5 km 8.000 ft 220° 220° 3 kt METAR VAAH 152000Z 22003KT 3500 BR BKN080 26/25 Q0998 NOSIG
01:00
I
26 °C 3,5 km 8.000 ft 200° 200° 3 kt METAR VAAH 151930Z 20003KT 3500 BR BKN080 26/25 Q0998 NOSIG
00:30
I
26 °C 3,5 km 8.000 ft 230° 230° 5 kt METAR VAAH 151900Z 23005KT 3500 BR BKN080 26/25 Q0999 NOSIG
00:00
I
26 °C 3 km 8.000 ft 220° 220° 4 kt METAR VAAH 151830Z 22004KT 3000 BR BKN080 26/25 Q0999 NOSIG

15 luglio 2024

Tempo Codice Tempo meteorologico Temp. Vista Base nuvolosa Vento METAR/SPECI
23:30
I
27 °C 3 km 8.000 ft 240° 240° 4 kt METAR VAAH 151800Z 24004KT 3000 BR BKN080 27/25 Q1000 NOSIG
23:00
I
27 °C 3 km 8.000 ft 260° 260° 3 kt METAR VAAH 151730Z 26003KT 3000 BR FEW020 BKN080 27/25 Q0999 NOSIG
22:30
I
26 °C 3 km 8.000 ft 200° 200° 3 kt METAR VAAH 151700Z 20003KT 3000 BR FEW020 BKN080 26/25 Q0999 NOSIG
Segnala modifiche